createdAt,value
2022-12-17T00:02:28.972Z,28.15
2022-12-17T00:05:14.672Z,27.33
2022-12-17T00:08:00.295Z,25.58
2022-12-17T00:10:46.040Z,25.92
2022-12-17T00:13:38.122Z,28.20
2022-12-17T00:16:26.116Z,27.20
2022-12-17T00:19:11.582Z,25.13
2022-12-17T00:21:57.301Z,25.52
2022-12-17T00:24:43.038Z,28.35
2022-12-17T00:27:28.458Z,24.85
2022-12-17T00:30:14.275Z,21.02
2022-12-17T00:33:00.993Z,21.73
2022-12-17T00:35:46.641Z,26.58
2022-12-17T00:38:34.677Z,25.00
2022-12-17T00:41:20.344Z,20.42
2022-12-17T00:44:05.713Z,22.27
2022-12-17T00:46:51.924Z,19.92
2022-12-17T00:49:39.218Z,22.60
2022-12-17T00:52:24.711Z,21.67
2022-12-17T00:55:10.336Z,21.83
2022-12-17T00:57:56.244Z,21.30
2022-12-17T01:00:41.845Z,16.95
2022-12-17T01:03:26.687Z,20.23
2022-12-17T01:06:14.020Z,16.95
2022-12-17T01:08:59.385Z,20.85
2022-12-17T01:11:44.235Z,16.73
2022-12-17T01:14:30.875Z,22.92
2022-12-17T01:17:16.207Z,19.65
2022-12-17T01:20:01.749Z,20.10
2022-12-17T01:22:48.423Z,21.02
2022-12-17T01:25:34.123Z,20.02
2022-12-17T01:28:19.880Z,20.60
2022-12-17T01:31:05.567Z,21.35
2022-12-17T01:33:51.184Z,23.60
2022-12-17T01:36:37.031Z,21.92
2022-12-17T01:39:24.162Z,22.70
2022-12-17T01:42:10.081Z,25.95
2022-12-17T01:45:12.167Z,26.02
2022-12-17T01:48:01.475Z,24.35
2022-12-17T01:50:51.379Z,19.95
2022-12-17T01:53:43.485Z,22.67
2022-12-17T01:59:16.692Z,19.27
2022-12-17T02:02:02.419Z,22.85
2022-12-17T02:04:48.450Z,24.25
2022-12-17T02:07:47.767Z,21.27
2022-12-17T02:10:42.319Z,39.58
2022-12-17T02:13:36.061Z,26.40
2022-12-17T02:16:28.465Z,21.70
2022-12-17T02:19:18.664Z,23.75
2022-12-17T02:22:11.340Z,23.10
2022-12-17T02:25:06.485Z,20.98
2022-12-17T02:27:54.278Z,21.55
2022-12-17T02:30:40.095Z,21.65
2022-12-17T02:33:26.803Z,26.70
2022-12-17T02:36:17.680Z,21.33
2022-12-17T02:39:03.335Z,26.25
2022-12-17T02:41:50.773Z,26.00
2022-12-17T02:44:40.292Z,26.58
2022-12-17T02:47:28.942Z,27.83
2022-12-17T02:50:14.971Z,23.10
2022-12-17T02:53:04.855Z,20.17
2022-12-17T02:55:50.787Z,23.45
2022-12-17T02:58:36.464Z,22.65
2022-12-17T03:01:24.054Z,26.88
2022-12-17T03:04:09.849Z,21.08
2022-12-17T03:06:55.506Z,22.75
2022-12-17T03:09:41.075Z,20.27
2022-12-17T03:12:35.393Z,24.35
2022-12-17T03:15:21.052Z,21.35
2022-12-17T03:18:07.722Z,23.77
2022-12-17T03:20:53.638Z,20.17
2022-12-17T03:23:39.303Z,23.48
2022-12-17T03:26:25.414Z,24.73
2022-12-17T03:29:10.907Z,21.40
2022-12-17T03:31:56.488Z,21.17
2022-12-17T03:34:39.844Z,22.55
2022-12-17T03:37:25.526Z,23.85
2022-12-17T03:40:11.074Z,24.92
2022-12-17T03:42:56.686Z,25.98
2022-12-17T03:45:42.438Z,27.52
2022-12-17T03:48:31.159Z,25.23
2022-12-17T03:51:18.694Z,28.33
2022-12-17T03:54:05.204Z,24.77
2022-12-17T03:56:51.487Z,25.65
2022-12-17T03:59:37.105Z,19.67
2022-12-17T04:02:23.050Z,20.33
2022-12-17T04:05:08.894Z,23.33
2022-12-17T04:07:55.606Z,22.58
2022-12-17T04:10:41.315Z,25.92
2022-12-17T04:13:27.094Z,20.52
2022-12-17T04:16:12.751Z,27.40
2022-12-17T04:18:58.216Z,22.75
2022-12-17T04:21:43.868Z,25.65
2022-12-17T04:24:30.536Z,26.05
2022-12-17T04:27:18.558Z,25.63
2022-12-17T04:30:04.110Z,24.75
2022-12-17T04:32:49.863Z,27.05
2022-12-17T04:35:35.900Z,29.48
2022-12-17T04:38:21.637Z,29.95
2022-12-17T04:41:08.482Z,29.52
2022-12-17T04:43:58.138Z,35.28
2022-12-17T04:46:46.966Z,32.42
2022-12-17T04:49:32.291Z,31.60
2022-12-17T04:52:18.065Z,38.17
2022-12-17T04:55:03.601Z,31.33
2022-12-17T04:57:59.280Z,33.85
2022-12-17T05:00:44.723Z,27.92
2022-12-17T05:03:32.295Z,37.35
2022-12-17T05:06:18.388Z,30.08
2022-12-17T05:09:04.305Z,35.53
2022-12-17T05:11:50.133Z,35.97
2022-12-17T05:14:37.110Z,34.05
2022-12-17T05:17:22.452Z,30.83
2022-12-17T05:20:07.955Z,33.78
2022-12-17T05:22:53.423Z,34.42
2022-12-17T05:25:39.128Z,29.25
2022-12-17T05:28:24.761Z,34.50
2022-12-17T05:31:13.073Z,28.08
2022-12-17T05:33:59.002Z,31.45
2022-12-17T05:36:45.298Z,33.42
2022-12-17T05:39:30.689Z,30.33
2022-12-17T05:42:16.385Z,32.38
2022-12-17T05:45:01.942Z,24.17
2022-12-17T05:47:48.866Z,29.55
2022-12-17T05:50:34.449Z,23.10
2022-12-17T05:53:20.891Z,32.67
2022-12-17T05:56:10.199Z,24.23
2022-12-17T05:58:55.914Z,23.38
2022-12-17T06:01:41.843Z,23.00
2022-12-17T06:04:29.621Z,21.85
2022-12-17T06:07:23.671Z,21.27
2022-12-17T06:10:09.409Z,29.73
2022-12-17T06:12:54.993Z,24.35
2022-12-17T06:15:40.352Z,59.50
2022-12-17T06:18:29.613Z,32.90
2022-12-17T06:21:16.383Z,38.42
2022-12-17T06:24:01.732Z,34.60
2022-12-17T06:26:47.596Z,24.83
2022-12-17T06:29:33.173Z,26.23
2022-12-17T06:32:18.736Z,26.80
2022-12-17T06:35:03.986Z,33.90
2022-12-17T06:37:55.995Z,30.48
2022-12-17T06:40:41.511Z,34.20
2022-12-17T06:43:27.449Z,25.67
2022-12-17T06:46:13.073Z,46.10
2022-12-17T06:48:58.609Z,28.20
2022-12-17T06:51:44.139Z,23.95
2022-12-17T06:54:30.893Z,28.60
2022-12-17T06:57:16.687Z,31.15
2022-12-17T07:00:07.728Z,30.60
2022-12-17T07:02:53.096Z,27.45
2022-12-17T07:05:38.682Z,29.08
2022-12-17T07:08:24.010Z,30.50
2022-12-17T07:11:11.060Z,24.83
2022-12-17T07:13:56.731Z,23.67
2022-12-17T07:16:42.012Z,26.02
2022-12-17T07:19:27.836Z,23.90
2022-12-17T07:22:14.733Z,24.73
2022-12-17T07:25:05.358Z,19.10
2022-12-17T07:27:51.493Z,21.52
2022-12-17T07:30:37.351Z,17.92
2022-12-17T07:33:24.269Z,19.73
2022-12-17T07:36:11.782Z,26.10
2022-12-17T07:38:57.523Z,19.13
2022-12-17T07:41:43.327Z,22.67
2022-12-17T07:44:30.368Z,19.98
2022-12-17T07:47:15.959Z,21.48
2022-12-17T07:50:01.289Z,25.83
2022-12-17T07:52:46.638Z,23.33
2022-12-17T07:55:32.325Z,21.42
2022-12-17T07:58:18.923Z,21.75
2022-12-17T08:01:06.282Z,20.80
2022-12-17T08:03:51.940Z,19.73
2022-12-17T08:06:37.372Z,22.90
2022-12-17T08:09:23.723Z,22.45
2022-12-17T08:12:09.307Z,18.60
2022-12-17T08:14:55.104Z,18.75
2022-12-17T08:17:41.988Z,23.77
2022-12-17T08:20:28.711Z,23.48
2022-12-17T08:23:20.195Z,22.90
2022-12-17T08:26:05.827Z,20.92
2022-12-17T08:28:51.587Z,30.83
2022-12-17T08:31:52.087Z,22.08
2022-12-17T08:34:39.392Z,19.15
2022-12-17T08:37:24.953Z,22.33
2022-12-17T08:40:10.612Z,20.95
2022-12-17T08:42:52.583Z,24.75
2022-12-17T08:48:32.131Z,21.20
2022-12-17T08:51:19.061Z,22.33
2022-12-17T08:54:04.585Z,18.95
2022-12-17T08:56:50.212Z,19.95
2022-12-17T08:59:35.492Z,22.55
2022-12-17T09:02:21.539Z,26.58
2022-12-17T09:05:09.492Z,24.02
2022-12-17T09:07:56.319Z,18.73
2022-12-17T09:10:44.001Z,20.75
2022-12-17T09:13:29.596Z,20.90
2022-12-17T09:16:16.541Z,40.22
2022-12-17T09:19:02.123Z,27.30
2022-12-17T09:21:49.511Z,20.40
2022-12-17T09:24:36.430Z,22.40
2022-12-17T09:27:22.343Z,19.45
2022-12-17T09:30:07.771Z,19.48
2022-12-17T09:32:53.468Z,18.15
2022-12-17T09:35:39.162Z,19.65
2022-12-17T09:38:24.574Z,16.92
2022-12-17T09:41:11.825Z,18.90
2022-12-17T09:44:02.564Z,18.13
2022-12-17T09:46:55.263Z,15.90
2022-12-17T09:49:43.533Z,18.58
2022-12-17T09:52:39.591Z,20.35
2022-12-17T09:55:35.533Z,20.15
2022-12-17T09:58:22.935Z,19.42
2022-12-17T10:01:09.200Z,17.67
2022-12-17T10:03:56.539Z,21.58
2022-12-17T10:06:45.797Z,18.13
2022-12-17T10:09:33.032Z,17.75
2022-12-17T10:12:26.806Z,18.55
2022-12-17T10:15:13.571Z,19.48
2022-12-17T10:17:59.328Z,18.27
2022-12-17T10:20:55.937Z,27.58
2022-12-17T10:23:42.748Z,20.40
2022-12-17T10:26:28.112Z,20.95
2022-12-17T10:29:22.805Z,19.20
2022-12-17T10:32:09.723Z,23.17
2022-12-17T10:35:01.764Z,21.50
2022-12-17T10:37:52.998Z,22.10
2022-12-17T10:40:44.243Z,21.17
2022-12-17T10:43:44.646Z,20.07
2022-12-17T10:46:30.481Z,20.80
2022-12-17T10:49:28.309Z,20.15
2022-12-17T10:52:22.719Z,20.60
2022-12-17T10:55:20.572Z,22.58
2022-12-17T10:58:08.573Z,20.23
2022-12-17T11:00:57.606Z,19.20
2022-12-17T11:03:50.461Z,21.92
2022-12-17T11:06:42.850Z,26.55
2022-12-17T11:09:37.523Z,27.83
2022-12-17T11:12:30.279Z,20.80
2022-12-17T11:15:21.535Z,23.92
2022-12-17T11:18:11.613Z,28.55
2022-12-17T11:21:06.133Z,25.42
2022-12-17T11:23:57.507Z,25.65
2022-12-17T11:26:45.796Z,24.42
2022-12-17T11:29:32.225Z,27.17
2022-12-17T11:32:34.321Z,26.88
2022-12-17T11:35:29.846Z,24.48
2022-12-17T11:38:22.832Z,25.00
2022-12-17T11:41:15.448Z,32.58
2022-12-17T11:44:11.403Z,31.00
2022-12-17T11:47:04.579Z,28.02
2022-12-17T11:50:00.546Z,26.42
2022-12-17T11:52:53.398Z,28.45
2022-12-17T11:55:44.835Z,28.95
2022-12-17T11:58:53.390Z,33.45
2022-12-17T12:01:47.949Z,33.72
2022-12-17T12:04:44.841Z,40.92
2022-12-17T12:07:39.706Z,30.63
2022-12-17T12:10:36.152Z,30.40
2022-12-17T12:13:38.364Z,37.63
2022-12-17T12:16:28.752Z,33.45
2022-12-17T12:19:20.307Z,27.85
2022-12-17T12:22:15.597Z,32.95
2022-12-17T12:25:24.923Z,29.15
2022-12-17T12:28:19.806Z,27.88
2022-12-17T12:31:17.221Z,28.33
2022-12-17T12:34:09.413Z,26.10
2022-12-17T12:39:48.140Z,24.50
2022-12-17T12:42:41.389Z,23.33
2022-12-17T12:45:45.416Z,22.85
2022-12-17T12:48:50.812Z,23.42
2022-12-17T12:51:42.072Z,27.35
2022-12-17T12:54:44.244Z,21.73
2022-12-17T12:57:47.514Z,24.38
2022-12-17T13:00:52.846Z,25.88
2022-12-17T13:03:51.303Z,23.70
2022-12-17T13:06:42.235Z,22.67
2022-12-17T13:09:34.567Z,25.70
2022-12-17T13:12:28.885Z,25.70
2022-12-17T13:15:11.630Z,28.15
2022-12-17T13:17:45.359Z,24.52
2022-12-17T13:20:30.443Z,27.58
2022-12-17T13:23:27.711Z,27.17
2022-12-17T13:26:22.583Z,23.10
2022-12-17T13:29:03.923Z,21.70
2022-12-17T13:31:44.926Z,21.27
2022-12-17T13:34:21.154Z,23.55
2022-12-17T13:36:58.256Z,25.88
2022-12-17T13:39:37.479Z,25.60
2022-12-17T13:42:06.136Z,25.92
2022-12-17T13:44:40.786Z,28.27
2022-12-17T13:47:22.582Z,29.98
2022-12-17T13:50:31.640Z,28.33
2022-12-17T13:52:44.240Z,26.35
2022-12-17T13:55:21.000Z,26.25
2022-12-17T13:57:50.853Z,24.67
2022-12-17T14:00:24.605Z,26.60
2022-12-17T14:02:54.234Z,26.83
2022-12-17T14:05:33.157Z,28.02
2022-12-17T14:08:05.381Z,27.17
2022-12-17T14:10:34.034Z,29.13
2022-12-17T14:13:06.438Z,31.23
2022-12-17T14:15:35.039Z,31.63
2022-12-17T14:18:04.688Z,30.00
2022-12-17T14:20:34.997Z,27.02
2022-12-17T14:23:06.686Z,30.65
2022-12-17T14:25:37.963Z,26.48
2022-12-17T14:28:08.049Z,29.10
2022-12-17T14:31:02.593Z,27.13
2022-12-17T14:33:30.772Z,20.63
2022-12-17T14:36:00.657Z,24.27
2022-12-17T14:38:38.262Z,32.67
2022-12-17T14:41:26.682Z,28.77
2022-12-17T14:43:59.867Z,25.75
2022-12-17T14:46:29.184Z,27.45
2022-12-17T14:49:04.100Z,26.00
2022-12-17T14:51:35.909Z,36.00
2022-12-17T14:54:18.538Z,27.92
2022-12-17T14:56:48.341Z,26.15
2022-12-17T14:59:25.234Z,28.20
2022-12-17T15:01:56.499Z,29.25
2022-12-17T15:04:25.042Z,28.65
2022-12-17T15:06:56.488Z,37.42
2022-12-17T15:09:26.092Z,31.13
2022-12-17T15:11:54.354Z,36.95
2022-12-17T15:14:22.501Z,37.63
2022-12-17T15:16:50.675Z,28.92
2022-12-17T15:19:18.848Z,33.90
2022-12-17T15:21:47.036Z,35.13
2022-12-17T15:24:18.943Z,44.15
2022-12-17T15:29:17.075Z,37.85
2022-12-17T15:31:45.320Z,31.75
2022-12-17T15:34:13.626Z,30.42
2022-12-17T15:36:41.784Z,48.90
2022-12-17T15:39:09.957Z,38.60
2022-12-17T15:41:55.639Z,49.33
2022-12-17T15:44:25.233Z,51.60
2022-12-17T15:46:53.376Z,34.60
2022-12-17T15:49:21.956Z,38.45
2022-12-17T15:51:50.091Z,31.38
2022-12-17T15:54:18.231Z,47.33
2022-12-17T15:56:54.224Z,49.70
2022-12-17T15:59:22.472Z,42.47
2022-12-17T16:01:52.388Z,37.80
2022-12-17T16:04:24.987Z,37.38
2022-12-17T16:06:53.498Z,132.70
2022-12-17T16:09:24.460Z,51.67
2022-12-17T16:11:55.220Z,51.65
2022-12-17T16:14:23.524Z,44.78
2022-12-17T16:16:53.396Z,41.22
2022-12-17T16:19:24.648Z,44.95
2022-12-17T16:21:52.818Z,40.10
2022-12-17T16:24:21.082Z,44.90
2022-12-17T16:26:49.266Z,39.78
2022-12-17T16:29:17.651Z,127.63
2022-12-17T16:31:46.217Z,70.32
2022-12-17T16:34:15.896Z,60.67
2022-12-17T16:36:44.147Z,48.63
2022-12-17T16:39:16.644Z,55.50
2022-12-17T16:41:44.924Z,60.58
2022-12-17T16:44:13.277Z,43.72
2022-12-17T16:46:43.052Z,51.70
2022-12-17T16:49:13.427Z,42.33
2022-12-17T16:51:43.091Z,49.75
2022-12-17T16:54:14.970Z,38.72
2022-12-17T16:59:12.645Z,35.40
2022-12-17T17:01:42.548Z,40.40
2022-12-17T17:04:11.553Z,39.97
2022-12-17T17:06:40.871Z,67.55
2022-12-17T17:09:10.505Z,44.38
2022-12-17T17:11:38.929Z,33.72
2022-12-17T17:14:07.860Z,36.05
2022-12-17T17:16:36.727Z,36.03
2022-12-17T17:19:05.661Z,32.53
2022-12-17T17:21:35.229Z,34.00
2022-12-17T17:24:07.106Z,75.50
2022-12-17T17:29:05.479Z,30.85
2022-12-17T17:32:08.550Z,52.88
2022-12-17T17:34:22.945Z,51.22
2022-12-17T17:36:51.089Z,58.25
2022-12-17T17:39:19.236Z,53.47
2022-12-17T17:41:48.767Z,33.53
2022-12-17T17:44:17.229Z,39.20
2022-12-17T17:46:45.505Z,97.75
2022-12-17T17:49:13.856Z,55.53
2022-12-17T17:54:32.552Z,36.30
2022-12-17T17:57:02.084Z,49.22
2022-12-17T17:59:33.655Z,40.03
2022-12-17T18:02:03.740Z,39.80
2022-12-17T18:04:32.672Z,36.88
2022-12-17T18:09:49.276Z,37.17
2022-12-17T18:12:36.220Z,36.60
2022-12-17T18:15:14.272Z,38.92
2022-12-17T18:17:43.898Z,34.40
2022-12-17T18:20:12.836Z,34.92
2022-12-17T18:22:40.996Z,37.55
2022-12-17T18:25:10.473Z,32.53
2022-12-17T18:27:40.407Z,38.90
2022-12-17T18:30:09.536Z,40.33
2022-12-17T18:32:37.703Z,43.63
2022-12-17T18:35:06.513Z,35.55
2022-12-17T18:37:34.784Z,40.97
2022-12-17T18:40:03.083Z,49.78
2022-12-17T18:42:48.715Z,42.22
2022-12-17T18:45:18.342Z,33.42
2022-12-17T18:47:46.549Z,35.33
2022-12-17T18:50:14.862Z,43.83
2022-12-17T18:52:43.103Z,36.30
2022-12-17T18:55:11.736Z,50.90
2022-12-17T18:57:39.878Z,53.00
2022-12-17T19:00:09.361Z,34.80
2022-12-17T19:02:39.249Z,9.30
2022-12-17T19:05:07.955Z,29.42
2022-12-17T19:07:36.100Z,29.40
2022-12-17T19:10:04.390Z,40.75
2022-12-17T19:12:33.117Z,31.30
2022-12-17T19:15:01.326Z,32.03
2022-12-17T19:17:29.524Z,31.75
2022-12-17T19:19:59.047Z,37.10
2022-12-17T19:22:27.169Z,33.58
2022-12-17T19:24:55.396Z,31.98
2022-12-17T19:27:23.567Z,40.25
2022-12-17T19:29:56.455Z,43.17
2022-12-17T19:32:24.842Z,36.75
2022-12-17T19:34:53.019Z,41.58
2022-12-17T19:37:22.558Z,35.60
2022-12-17T19:39:50.743Z,35.30
2022-12-17T19:42:36.589Z,81.80
2022-12-17T19:45:06.012Z,39.20
2022-12-17T19:47:34.166Z,43.88
2022-12-17T19:50:02.310Z,34.72
2022-12-17T19:52:31.939Z,44.65
2022-12-17T19:55:00.126Z,46.03
2022-12-17T19:57:28.323Z,43.70
2022-12-17T19:59:56.470Z,51.65
2022-12-17T20:02:29.679Z,40.38
2022-12-17T20:05:00.548Z,45.83
2022-12-17T20:07:28.735Z,48.05
2022-12-17T20:09:58.262Z,49.60
2022-12-17T20:12:26.435Z,53.50
2022-12-17T20:14:54.584Z,51.72
2022-12-17T20:17:22.728Z,52.50
2022-12-17T20:19:53.344Z,46.28
2022-12-17T20:22:23.196Z,39.92
2022-12-17T20:24:53.222Z,39.47
2022-12-17T20:27:22.913Z,36.58
2022-12-17T20:29:51.046Z,51.35
2022-12-17T20:32:21.239Z,40.03
2022-12-17T20:34:49.482Z,40.78
2022-12-17T20:37:17.700Z,55.08
2022-12-17T20:39:45.873Z,96.78
2022-12-17T20:42:14.141Z,115.78
2022-12-17T20:44:45.495Z,94.65
2022-12-17T20:47:16.895Z,103.38
2022-12-17T20:49:45.035Z,120.40
2022-12-17T20:52:13.181Z,86.97
2022-12-17T20:54:41.352Z,70.85
2022-12-17T20:57:09.501Z,54.70
2022-12-17T20:59:37.752Z,58.90
2022-12-17T21:02:07.527Z,59.20
2022-12-17T21:04:35.759Z,60.67
2022-12-17T21:07:03.913Z,70.95
2022-12-17T21:09:32.124Z,95.43
2022-12-17T21:12:00.431Z,59.03
2022-12-17T21:14:35.163Z,59.42
2022-12-17T21:17:05.166Z,58.13
2022-12-17T21:19:35.086Z,56.55
2022-12-17T21:22:03.592Z,51.67
2022-12-17T21:24:31.745Z,60.78
2022-12-17T21:27:00.010Z,54.97
2022-12-17T21:29:28.331Z,55.35
2022-12-17T21:31:56.514Z,54.95
2022-12-17T21:34:25.335Z,45.47
2022-12-17T21:36:54.919Z,72.15
2022-12-17T21:39:23.109Z,63.17
2022-12-17T21:42:09.029Z,71.28
2022-12-17T21:44:37.533Z,58.90
2022-12-17T21:47:05.960Z,54.70
2022-12-17T21:49:34.110Z,95.85
2022-12-17T21:52:04.826Z,101.78
2022-12-17T21:54:35.676Z,67.40
2022-12-17T21:57:04.477Z,58.25
2022-12-17T21:59:32.768Z,66.30
2022-12-17T22:02:01.099Z,136.13
2022-12-17T22:04:29.509Z,56.67
2022-12-17T22:07:00.673Z,56.92
2022-12-17T22:09:52.810Z,77.53
2022-12-17T22:12:38.692Z,65.03
2022-12-17T22:15:10.942Z,82.15
2022-12-17T22:17:41.292Z,57.97
2022-12-17T22:20:11.104Z,57.95
2022-12-17T22:22:39.355Z,56.10
2022-12-17T22:25:11.667Z,48.75
2022-12-17T22:27:40.853Z,46.53
2022-12-17T22:30:31.409Z,57.53
2022-12-17T22:33:03.963Z,51.85
2022-12-17T22:36:50.480Z,49.13
2022-12-17T22:42:38.545Z,55.35
2022-12-17T22:44:33.412Z,52.03
2022-12-17T22:44:41.332Z,44.95
2022-12-17T22:47:07.620Z,54.22
2022-12-17T22:49:35.766Z,63.90
2022-12-17T22:52:03.989Z,63.10
2022-12-17T22:54:32.446Z,54.80
2022-12-17T22:57:36.869Z,58.83
2022-12-17T22:59:51.504Z,61.20
2022-12-17T23:02:19.811Z,67.70
2022-12-17T23:04:48.091Z,54.85
2022-12-17T23:07:16.267Z,57.65
2022-12-17T23:09:44.498Z,68.13
2022-12-17T23:12:31.448Z,58.60
2022-12-17T23:14:59.665Z,50.42
2022-12-17T23:17:27.813Z,62.60
2022-12-17T23:19:55.959Z,54.20
2022-12-17T23:22:24.162Z,54.58
2022-12-17T23:24:52.350Z,49.90
2022-12-17T23:27:21.887Z,53.25
2022-12-17T23:29:50.141Z,51.38
2022-12-17T23:32:18.356Z,57.00
2022-12-17T23:34:46.483Z,56.88
2022-12-17T23:37:14.642Z,48.40
2022-12-17T23:39:42.783Z,39.35
2022-12-17T23:42:10.942Z,36.80
2022-12-17T23:44:40.637Z,30.70
2022-12-17T23:47:08.790Z,35.55
2022-12-17T23:49:36.976Z,26.70
2022-12-17T23:52:05.334Z,32.50
2022-12-17T23:54:33.541Z,28.95
2022-12-17T23:57:01.844Z,30.00
2022-12-17T23:59:30.000Z,31.65
